Dades meteomassalio
Diari Summary for Juliol 6, 2017 Units:  Metric    English   Both
« Previous Day
Next Day »
Diari Semanal Mensual Anual Personalitzat
  Maxima: Minima: Mijana:
Temperatura: -17.8 °C -5.9 °C -2.7 °C
Rosada: -17.8 °C -10.7 °C -8.7 °C
Humitat: Humidity % 26 % 53 %
Velocitat del vent: 0 km/h 0 km/h 9.2 km/h
Racha vent: 0 km/h - -
Vent:- - SSE
Pressio: 0 hPa 34337.4 hPa -
Pluja: 0 mm    
Historical Graphs
 
 
Tabular Data for Juliol 6, 2017
Time Temperature Dew Point Pressure Wind Wind Speed Wind Gust Humidity Rainfall Rate (Hourly) solar Conditions
-17.8 °C -17.8 °C 0 hPa Calm     Humidity % 0 mm SolarRadiationWatts/m^2 W/m2 Conditions
00:02 -3.8 °C -9.6 °C 34361.1 hPa ESE 15 km/h 15 km/h 53 % 0 mm 0.0 W/m2 CLR
00:07 -3.9 °C -9.4 °C 34361.1 hPa ESE 15.6 km/h 15.6 km/h 54 % 0 mm 0.0 W/m2 CLR
00:12 -4 °C -9.5 °C 34361.1 hPa East 11.9 km/h 11.9 km/h 54 % 0 mm 0.0 W/m2 CLR
00:17 -4.1 °C -9.4 °C 34361.1 hPa Calm     55 % 0 mm 0.0 W/m2 CLR
00:22 -4.2 °C -9.6 °C 34361.1 hPa Calm     55 % 0 mm 0.0 W/m2 CLR
00:27 -4.2 °C -9.5 °C 34361.1 hPa East 6 km/h   55 % 0 mm 0.0 W/m2 CLR
00:32 -4.1 °C -9.5 °C 34361.1 hPa Calm     55 % 0 mm 0.0 W/m2 CLR
00:37 -4.1 °C -9.4 °C 34347.6 hPa ESE 11.9 km/h 11.9 km/h 55 % 0 mm 0.0 W/m2 CLR
00:42 -4 °C -9.4 °C 34361.1 hPa East 9 km/h 9 km/h 55 % 0 mm 0.0 W/m2 CLR
00:47 -4.1 °C -9.4 °C 34361.1 hPa ENE 11.9 km/h 11.9 km/h 55 % 0 mm 0.0 W/m2 CLR
00:52 -4.1 °C -9.3 °C 34361.1 hPa ENE 9 km/h 9 km/h 56 % 0 mm 0.0 W/m2 CLR
00:57 -4.1 °C -9.3 °C 34371.3 hPa East 10.3 km/h 10.3 km/h 56 % 0 mm 0.0 W/m2 CLR
01:02 -4.1 °C -9.3 °C 34371.3 hPa ESE 17.9 km/h 17.9 km/h 56 % 0 mm 0.0 W/m2 CLR
01:07 -4.1 °C -9.3 °C 34371.3 hPa East 20.9 km/h 20.9 km/h 56 % 0 mm 0.0 W/m2 CLR
01:12 -4.1 °C -9.2 °C 34395 hPa ENE 12.9 km/h 12.9 km/h 57 % 0 mm 0.0 W/m2 CLR
01:17 -4.2 °C -9.1 °C 34395 hPa ENE 9 km/h   58 % 0 mm 0.0 W/m2 CLR
01:22 -4.2 °C -9.2 °C 34395 hPa Calm     57 % 0 mm 0.0 W/m2 CLR
01:27 -4.1 °C -9.5 °C 34405.1 hPa Calm     55 % 0 mm 0.0 W/m2 CLR
01:32 -4 °C -9.6 °C 34418.7 hPa Calm     54 % 0 mm 0.0 W/m2 CLR
01:37 -4 °C -9.2 °C 34418.7 hPa NW 18.2 km/h 18.2 km/h 56 % 0 mm 0.0 W/m2 CLR
01:42 -4.2 °C -9.2 °C 34418.7 hPa NNW 15 km/h 15 km/h 57 % 0 mm 0.0 W/m2 CLR
01:47 -4.2 °C -9.4 °C 34418.7 hPa Calm     56 % 0 mm 0.0 W/m2 CLR
01:52 -4.3 °C -9.1 °C 34428.8 hPa Calm     58 % 0 mm 0.0 W/m2 CLR
01:57 -4.3 °C -9.1 °C 34428.8 hPa Calm     59 % 0 mm 0.0 W/m2 CLR
02:02 -4.4 °C -9 °C 34418.7 hPa Calm     60 % 0 mm 0.0 W/m2 CLR
02:07 -4.5 °C -8.8 °C 34405.1 hPa Calm     62 % 0 mm 0.0 W/m2 CLR
02:12 -4.6 °C -8.6 °C 34405.1 hPa Calm     64 % 0 mm 0.0 W/m2 CLR
02:17 -4.6 °C -8.4 °C 34405.1 hPa Calm     66 % 0 mm 0.0 W/m2 CLR
02:22 -4.7 °C -8.3 °C 34405.1 hPa Calm     67 % 0 mm 0.0 W/m2 CLR
02:27 -4.8 °C -8.2 °C 34405.1 hPa Calm     69 % 0 mm 0.0 W/m2 CLR
02:32 -4.9 °C -8 °C 34418.7 hPa Calm     71 % 0 mm 0.0 W/m2 CLR
02:37 -5 °C -8.1 °C 34405.1 hPa Calm     71 % 0 mm 0.0 W/m2 CLR
02:42 -5.1 °C -8.1 °C 34405.1 hPa Calm     71 % 0 mm 0.0 W/m2 CLR
02:47 -5.1 °C -8.1 °C 34395 hPa Calm     71 % 0 mm 0.0 W/m2 CLR
02:52 -5.1 °C -8.1 °C 34384.8 hPa Calm     71 % 0 mm 0.0 W/m2 CLR
02:57 -5.1 °C -8.1 °C 34361.1 hPa Calm   0.5 km/h 72 % 0 mm 0.0 W/m2 CLR
03:03 -5.2 °C -8 °C 34361.1 hPa East 9 km/h 9 km/h 73 % 0 mm 0.0 W/m2 CLR
03:08 -5.2 °C -7.9 °C 34361.1 hPa ENE 9 km/h 9 km/h 74 % 0 mm 0.0 W/m2 CLR
03:13 -5.2 °C -7.9 °C 34371.3 hPa East 18.2 km/h 18.2 km/h 74 % 0 mm 0.0 W/m2 CLR
03:18 -5.2 °C -7.9 °C 34371.3 hPa NE 9 km/h 9 km/h 74 % 0 mm 0.0 W/m2 CLR
03:23 -5.2 °C -7.9 °C 34371.3 hPa Calm     74 % 0 mm 0.0 W/m2 CLR
03:28 -5.2 °C -7.9 °C 34361.1 hPa Calm     74 % 0 mm 0.0 W/m2 CLR
03:33 -5.2 °C -7.8 °C 34361.1 hPa Calm     75 % 0 mm 0.0 W/m2 CLR
03:38 -5.3 °C -7.9 °C 34361.1 hPa Calm     75 % 0 mm 0.0 W/m2 CLR
03:43 -5.3 °C -7.9 °C 34361.1 hPa Calm     75 % 0 mm 0.0 W/m2 CLR
03:48 -5.3 °C -7.9 °C 34347.6 hPa East 9 km/h 9 km/h 75 % 0 mm 0.0 W/m2 CLR
03:53 -5.3 °C -8 °C 34337.4 hPa Calm     74 % 0 mm 0.0 W/m2 CLR
03:58 -5.3 °C -8 °C 34347.6 hPa Calm     74 % 0 mm 0.0 W/m2 CLR
04:03 -5.3 °C -8.1 °C 34347.6 hPa Calm     74 % 0 mm 0.0 W/m2 CLR
04:08 -5.4 °C -8.1 °C 34347.6 hPa Calm     74 % 0 mm 0.0 W/m2 CLR
04:13 -5.4 °C -8.1 °C 34347.6 hPa Calm     74 % 0 mm 0.0 W/m2 CLR
04:18 -5.4 °C -8.1 °C 34361.1 hPa Calm     74 % 0 mm 0.0 W/m2 CLR
04:23 -5.4 °C -8.1 °C 34347.6 hPa Calm     74 % 0 mm 0.0 W/m2 CLR
04:28 -5.4 °C -8.1 °C 34361.1 hPa Calm     74 % 0 mm 0.0 W/m2 CLR
04:33 -5.4 °C -8.1 °C 34361.1 hPa Calm     74 % 0 mm 0.0 W/m2 CLR
04:38 -5.4 °C -8.1 °C 34347.6 hPa Calm     74 % 0 mm 0.0 W/m2 CLR
04:43 -5.4 °C -8.1 °C 34347.6 hPa Calm     74 % 0 mm 0.0 W/m2 CLR
04:48 -5.4 °C -8.1 °C 34347.6 hPa Calm     74 % 0 mm 0.0 W/m2 CLR
04:53 -5.4 °C -8.1 °C 34347.6 hPa Calm     74 % 0 mm 0.0 W/m2 CLR
04:58 -5.4 °C -8.1 °C 34347.6 hPa Calm     75 % 0 mm 0.0 W/m2 CLR
05:03 -5.5 °C -8.1 °C 34361.1 hPa Calm     75 % 0 mm 0.0 W/m2 CLR
05:08 -5.6 °C -8 °C 34361.1 hPa Calm     76 % 0 mm 0.0 W/m2 CLR
05:13 -5.6 °C -8.1 °C 34371.3 hPa Calm     76 % 0 mm 0.0 W/m2 CLR
05:18 -5.6 °C -8.1 °C 34371.3 hPa Calm     76 % 0 mm 0.0 W/m2 CLR
05:23 -5.7 °C -8.1 °C 34371.3 hPa Calm     76 % 0 mm 0.0 W/m2 CLR
05:28 -5.7 °C -8.2 °C 34371.3 hPa Calm     76 % 0 mm 0.0 W/m2 CLR
05:33 -5.7 °C -8 °C 34371.3 hPa Calm     77 % 0 mm 0.0 W/m2 CLR
05:38 -5.7 °C -8.1 °C 34384.8 hPa Calm     77 % 0 mm 0.0 W/m2 CLR
05:43 -5.8 °C -8.2 °C 34371.3 hPa Calm     76 % 0 mm 0.0 W/m2 CLR
05:48 -5.8 °C -8.2 °C 34371.3 hPa Calm     77 % 0 mm 0.0 W/m2 CLR
05:53 -5.8 °C -8.2 °C 34384.8 hPa Calm     77 % 0 mm 0.0 W/m2 CLR
05:58 -5.8 °C -8.2 °C 34384.8 hPa SW 12.9 km/h 12.9 km/h 76 % 0 mm 0.0 W/m2 CLR
06:03 -5.8 °C -8.2 °C 34371.3 hPa Calm     77 % 0 mm 0.0 W/m2 CLR
06:08 -5.8 °C -8.2 °C 34371.3 hPa Calm     76 % 0 mm 0.0 W/m2 CLR
06:13 -5.7 °C -8.2 °C 34371.3 hPa Calm     76 % 0 mm 0.0 W/m2 CLR
06:18 -5.7 °C -8.2 °C 34371.3 hPa Calm     76 % 0 mm 0.0 W/m2 CLR
06:23 -5.8 °C -8.2 °C 34371.3 hPa Calm     76 % 0 mm 0.0 W/m2 OVC
06:28 -5.8 °C -8.2 °C 34371.3 hPa Calm     76 % 0 mm 0.0 W/m2 OVC
06:33 -5.8 °C -8.2 °C 34371.3 hPa Calm     77 % 0 mm 0.0 W/m2 OVC
06:38 -5.9 °C -8.1 °C 34384.8 hPa West 9 km/h 9 km/h 78 % 0 mm 0.0 W/m2 OVC
06:43 -5.9 °C -8 °C 34384.8 hPa Calm     79 % 0 mm 0.0 W/m2 OVC
06:48 -5.9 °C -8 °C 34384.8 hPa Calm     79 % 0 mm 0.0 W/m2 OVC
06:53 -5.9 °C -8 °C 34384.8 hPa Calm     79 % 0 mm 5.0 W/m2 OVC
06:58 -5.9 °C -8 °C 34395 hPa Calm     79 % 0 mm 7.0 W/m2 BKN
07:03 -5.9 °C -8 °C 34384.8 hPa Calm     79 % 0 mm 9.0 W/m2 BKN
07:08 -5.9 °C -8 °C 34395 hPa WSW 10.3 km/h 10.3 km/h 79 % 0 mm 12.0 W/m2 BKN
07:13 -5.8 °C -8.2 °C 34395 hPa WSW 9 km/h 9 km/h 77 % 0 mm 14.0 W/m2 BKN
07:18 -5.7 °C -8.1 °C 34418.7 hPa NW 11.9 km/h 11.9 km/h 76 % 0 mm 16.0 W/m2 BKN
07:28 -5.3 °C -8.4 °C 34418.7 hPa North 3.1 km/h   71 % 0 mm 40.0 W/m2 BKN
07:33 -5.2 °C -8.4 °C 34442.4 hPa NW 26.9 km/h 26.9 km/h 70 % 0 mm 58.0 W/m2 SCT
07:35 -5.1 °C -8.3 °C 34428.8 hPa WNW 9 km/h 9 km/h 70 % 0 mm 63.0 W/m2 SCT
07:40 -5.1 °C -8.3 °C 34452.6 hPa Calm     70 % 0 mm 54.0 W/m2 SCT
07:45 -5.1 °C -8.3 °C 34442.4 hPa Calm     70 % 0 mm 53.0 W/m2 SCT
07:50 -5.1 °C -8.2 °C 34462.7 hPa WNW 23.8 km/h 23.8 km/h 71 % 0 mm 69.0 W/m2 SCT
07:55 -5.1 °C -8.1 °C 34462.7 hPa WNW 15.6 km/h 15.6 km/h 72 % 0 mm 88.0 W/m2 FEW
08:00 -5.1 °C -8.1 °C 34462.7 hPa Calm     72 % 0 mm 102.0 W/m2 FEW
08:05 -5.1 °C -8 °C 34462.7 hPa Calm     72 % 0 mm 118.0 W/m2 CLR
08:10 -5 °C -7.9 °C 34476.3 hPa Calm     72 % 0 mm 149.0 W/m2 CLR
08:15 -4.8 °C -7.9 °C 34462.7 hPa Calm     71 % 0 mm 218.0 W/m2 CLR
08:20 -4.7 °C -7.9 °C 34476.3 hPa West 11.9 km/h 11.9 km/h 70 % 0 mm 214.0 W/m2 CLR
08:25 -4.6 °C -7.8 °C 34462.7 hPa West 15 km/h 15 km/h 70 % 0 mm 295.0 W/m2 CLR
08:30 -4.5 °C -7.9 °C 34452.6 hPa Calm     69 % 0 mm 309.0 W/m2 CLR
08:35 -4.3 °C -7.8 °C 34452.6 hPa Calm     68 % 0 mm 304.0 W/m2 CLR
08:40 -4.1 °C -7.8 °C 34452.6 hPa Calm     67 % 0 mm 281.0 W/m2 CLR
08:45 -3.9 °C -7.7 °C 34452.6 hPa Calm     66 % 0 mm 281.0 W/m2 CLR
08:50 -3.8 °C -7.9 °C 34452.6 hPa Calm     64 % 0 mm 209.0 W/m2 CLR
08:55 -3.8 °C -8 °C 34452.6 hPa SSW 10.3 km/h 10.3 km/h 63 % 0 mm 132.0 W/m2 CLR
09:00 -3.8 °C -8.1 °C 34452.6 hPa SW 15 km/h 15 km/h 62 % 0 mm 142.0 W/m2 CLR
09:05 -3.8 °C -8.1 °C 34452.6 hPa Calm     62 % 0 mm 163.0 W/m2 CLR
09:10 -3.7 °C -8.2 °C 34452.6 hPa SSW 17.9 km/h 17.9 km/h 61 % 0 mm 174.0 W/m2 CLR
09:15 -3.6 °C -8.2 °C 34452.6 hPa SW 15 km/h 15 km/h 60 % 0 mm 172.0 W/m2 CLR
09:20 -3.5 °C -8.1 °C 34452.6 hPa SSW 11.9 km/h 11.9 km/h 60 % 0 mm 188.0 W/m2 CLR
09:25 -3.4 °C -8.3 °C 34452.6 hPa SW 9 km/h 9 km/h 58 % 0 mm 218.0 W/m2 CLR
09:30 -3.2 °C -8.3 °C 34452.6 hPa SW 3.1 km/h 3.1 km/h 57 % 0 mm 221.0 W/m2 CLR
09:35 -3.1 °C -8.2 °C 34442.4 hPa Calm     57 % 0 mm 218.0 W/m2 CLR
09:40 -2.9 °C -8.3 °C 34442.4 hPa Calm     55 % 0 mm 264.0 W/m2 CLR
09:45 -2.7 °C -8.5 °C 34442.4 hPa Calm     53 % 0 mm 255.0 W/m2 CLR
09:50 -2.6 °C -8.5 °C 34442.4 hPa Calm     52 % 0 mm 251.0 W/m2 CLR
09:55 -2.4 °C -8.5 °C 34442.4 hPa Calm     51 % 0 mm 288.0 W/m2 CLR
10:00 -2.1 °C -9 °C 34442.4 hPa Calm     47 % 0 mm 603.0 W/m2 CLR
10:05 -1.9 °C -9 °C 34442.4 hPa Calm     46 % 0 mm 281.0 W/m2 CLR
10:15 -1.6 °C -9.1 °C 34442.4 hPa Calm     44 % 0 mm 626.0 W/m2 CLR
10:20 -1.4 °C -9.1 °C 34428.8 hPa Calm     43 % 0 mm 747.0 W/m2 CLR
10:25 -1.3 °C -9.2 °C 34428.8 hPa Calm     42 % 0 mm 397.0 W/m2 CLR
10:30 -1.1 °C -9.5 °C 34428.8 hPa NW 9 km/h   40 % 0 mm 345.0 W/m2 CLR
10:35 -0.9 °C -8.5 °C 34428.8 hPa NE 9 km/h 9 km/h 44 % 0 mm 278.0 W/m2 CLR
10:40 -1.1 °C -8.4 °C 34428.8 hPa NE 23.8 km/h 23.8 km/h 45 % 0 mm 285.0 W/m2 CLR
10:45 -1.4 °C -7.9 °C 34428.8 hPa NE 26.9 km/h 26.9 km/h 49 % 0 mm 330.0 W/m2 CLR
10:50 -1.5 °C -7.9 °C 34428.8 hPa ENE 17.9 km/h 17.9 km/h 50 % 0 mm 594.0 W/m2 CLR
10:57 -1.3 °C -7.7 °C 34428.8 hPa NE 17.9 km/h 17.9 km/h 50 % 0 mm 675.0 W/m2 CLR
11:02 -1.2 °C -7.8 °C 34418.7 hPa NE 17.9 km/h 17.9 km/h 49 % 0 mm 684.0 W/m2 CLR
11:03 -1.2 °C -7.8 °C 34418.7 hPa East 15 km/h 15 km/h 49 % 0 mm 686.0 W/m2 CLR
11:07 -1.1 °C -8.1 °C 34418.7 hPa NE 15 km/h 15 km/h 47 % 0 mm 705.0 W/m2 CLR
11:12 -1.2 °C -8.3 °C 34418.7 hPa East 9 km/h 9 km/h 46 % 0 mm 752.0 W/m2 CLR
11:14 -1.1 °C -8.1 °C 34418.7 hPa ENE 7.7 km/h 7.7 km/h 47 % 0 mm 686.0 W/m2 CLR
11:15 -1.1 °C -8.2 °C 34418.7 hPa ENE 10.3 km/h 10.3 km/h 46 % 0 mm 366.0 W/m2 CLR
11:19 -1 °C -8.4 °C 34418.7 hPa Calm     45 % 0 mm 578.0 W/m2 CLR
11:20 -1 °C -8.4 °C 34418.7 hPa Calm     45 % 0 mm 624.0 W/m2 CLR
11:21 -0.9 °C -8.5 °C 34418.7 hPa Calm     44 % 0 mm 624.0 W/m2 CLR
11:23 -0.9 °C -8.4 °C 34418.7 hPa Calm     44 % 0 mm 619.0 W/m2 CLR
11:24 -0.9 °C -8.4 °C 34418.7 hPa Calm     44 % 0 mm 599.0 W/m2 CLR
11:27 -0.8 °C -8.4 °C 34418.7 hPa Calm     44 % 0 mm 487.0 W/m2 CLR
11:28 -0.8 °C -8.6 °C 34418.7 hPa Calm     43 % 0 mm 450.0 W/m2 CLR
11:29 -0.8 °C -8.6 °C 34405.1 hPa Calm     43 % 0 mm 366.0 W/m2 CLR
11:31 -0.8 °C -8.6 °C 34405.1 hPa ENE 6 km/h 6 km/h 43 % 0 mm 299.0 W/m2 CLR
11:32 -0.8 °C -8.8 °C 34405.1 hPa ENE 3.1 km/h 3.1 km/h 42 % 0 mm 299.0 W/m2 CLR
11:37 -0.9 °C -9.1 °C 34395 hPa Calm     41 % 0 mm 250.0 W/m2 CLR
11:42 -1.1 °C -9.1 °C 34395 hPa Calm     42 % 0 mm 269.0 W/m2 CLR
11:47 -1.1 °C -9 °C 34395 hPa Calm     42 % 0 mm 378.0 W/m2 CLR
11:52 -0.9 °C -8.8 °C 34405.1 hPa Calm     42 % 0 mm 636.0 W/m2 CLR
11:57 -0.7 °C -9.1 °C 34405.1 hPa Calm     40 % 0 mm 591.0 W/m2 CLR
11:58 -0.7 °C -9.3 °C 34405.1 hPa Calm     39 % 0 mm 591.0 W/m2 CLR
12:03 -0.4 °C -9.6 °C 34405.1 hPa Calm     37 % 0 mm 563.0 W/m2 CLR
12:08 -0.3 °C -9.7 °C 34405.1 hPa Calm     36 % 0 mm 343.0 W/m2 CLR
12:13 -0.2 °C -9.8 °C 34405.1 hPa Calm     35 % 0 mm 432.0 W/m2 CLR
12:18 -0.1 °C -9.8 °C 34405.1 hPa SE 15.6 km/h 15.6 km/h 35 % 0 mm 550.0 W/m2 CLR
12:23 -0.1 °C -9.7 °C 34405.1 hPa East 20.8 km/h 20.8 km/h 35 % 0 mm 624.0 W/m2 CLR
12:28 -0.2 °C -9.6 °C 34395 hPa ENE 5.1 km/h 5.1 km/h 36 % 0 mm 564.0 W/m2 CLR
12:33 -0.1 °C -9.7 °C 34395 hPa East 15 km/h 15 km/h 35 % 0 mm 687.0 W/m2 CLR
12:38 0.1 °C -9.3 °C 34395 hPa ESE 3.1 km/h 3.1 km/h 36 % 0 mm 540.0 W/m2 CLR
12:43 0.3 °C -9.6 °C 34395 hPa SE 26.9 km/h 26.9 km/h 34 % 0 mm 895.0 W/m2 CLR
12:48 0.3 °C -9.9 °C 34395 hPa South 15 km/h 15 km/h 33 % 0 mm 540.0 W/m2 CLR
12:53 0.2 °C -9.9 °C 34395 hPa ESE 23.8 km/h 23.8 km/h 33 % 0 mm 290.0 W/m2 CLR
12:58 0.1 °C -10.1 °C 34395 hPa SE 18.2 km/h 18.2 km/h 33 % 0 mm 214.0 W/m2 CLR
13:03 0.1 °C -10.4 °C 34405.1 hPa SE 10.3 km/h 10.3 km/h 32 % 0 mm 167.0 W/m2 CLR
13:08 -0.1 °C -10.4 °C 34395 hPa ESE 17.9 km/h 17.9 km/h 32 % 0 mm 227.0 W/m2 CLR
13:13 0 °C -10.4 °C 34395 hPa SE 15 km/h 15 km/h 32 % 0 mm 290.0 W/m2 CLR
13:18 0 °C -10.2 °C 34395 hPa Calm     33 % 0 mm 244.0 W/m2 CLR
13:23 0.1 °C -10.4 °C 34384.8 hPa ENE 9 km/h 9 km/h 32 % 0 mm 251.0 W/m2 CLR
13:28 0.1 °C -10.3 °C 34384.8 hPa ENE 3.1 km/h   32 % 0 mm 327.0 W/m2 CLR
13:33 0.2 °C -10.2 °C 34371.3 hPa ENE 3.1 km/h 3.1 km/h 32 % 0 mm 371.0 W/m2 CLR
13:38 0.3 °C -10.2 °C 34371.3 hPa East 11.9 km/h 11.9 km/h 32 % 0 mm 381.0 W/m2 CLR
13:43 0.2 °C -10.5 °C 34371.3 hPa East 15 km/h 15 km/h 31 % 0 mm 452.0 W/m2 CLR
13:48 0.2 °C -10.5 °C 34371.3 hPa SE 9 km/h 9 km/h 31 % 0 mm 575.0 W/m2 CLR
13:53 0.3 °C -10.7 °C 34371.3 hPa East 15 km/h 15 km/h 30 % 0 mm 469.0 W/m2 CLR
13:58 0.4 °C -10.3 °C 34371.3 hPa ENE 9 km/h   31 % 0 mm 782.0 W/m2 CLR
14:03 0.7 °C -9.8 °C 34371.3 hPa East 15 km/h 15 km/h 32 % 0 mm 1011.0 W/m2 CLR
14:08 0.8 °C -9.4 °C 34371.3 hPa East 20.9 km/h 20.9 km/h 33 % 0 mm 615.0 W/m2 CLR
14:13 0.9 °C -9.6 °C 34371.3 hPa East 29.8 km/h 29.8 km/h 32 % 0 mm 1192.0 W/m2 CLR
14:18 0.9 °C -9.6 °C 34371.3 hPa East 23.8 km/h 23.8 km/h 32 % 0 mm 693.0 W/m2 CLR
14:23 0.8 °C -9.7 °C 34371.3 hPa East 32.8 km/h 32.8 km/h 32 % 0 mm 881.0 W/m2 CLR
14:28 0.8 °C -9.5 °C 34371.3 hPa ESE 25.9 km/h 25.9 km/h 33 % 0 mm 448.0 W/m2 CLR
14:33 0.9 °C -9.9 °C 34371.3 hPa ENE 29.8 km/h 29.8 km/h 31 % 0 mm 958.0 W/m2 CLR
14:38 0.9 °C -9.6 °C 34371.3 hPa ESE 32.8 km/h 32.8 km/h 32 % 0 mm 965.0 W/m2 CLR
14:43 1 °C -9.3 °C 34361.1 hPa East 23.8 km/h 23.8 km/h 33 % 0 mm 935.0 W/m2 CLR
14:48 1.1 °C -9.8 °C 34361.1 hPa Calm     31 % 0 mm 909.0 W/m2 CLR
14:53 1.2 °C -9.4 °C 34361.1 hPa SE 3.1 km/h 3.1 km/h 32 % 0 mm 911.0 W/m2 CLR
14:58 1.2 °C -8.8 °C 34361.1 hPa SSW 11.9 km/h 11.9 km/h 34 % 0 mm 895.0 W/m2 CLR
15:03 1.3 °C -9 °C 34361.1 hPa ENE 26.9 km/h 26.9 km/h 33 % 0 mm 904.0 W/m2 CLR
15:08 1.4 °C -8.9 °C 34361.1 hPa East 12.9 km/h 12.9 km/h 33 % 0 mm 911.0 W/m2 CLR
15:13 1.4 °C -9.4 °C 34361.1 hPa East 23.8 km/h 23.8 km/h 31 % 0 mm 930.0 W/m2 CLR
15:18 1.4 °C -9.7 °C 34361.1 hPa ESE 23.8 km/h 23.8 km/h 30 % 0 mm 958.0 W/m2 CLR
15:23 1.5 °C -9.9 °C 34361.1 hPa Calm     29 % 0 mm 972.0 W/m2 CLR
15:28 1.5 °C -9.7 °C 34361.1 hPa East 9 km/h 9 km/h 30 % 0 mm 418.0 W/m2 CLR
15:33 1.6 °C -9.3 °C 34361.1 hPa ENE 3.1 km/h   31 % 0 mm 418.0 W/m2 CLR
15:38 1.7 °C -10.1 °C 34361.1 hPa SSE 20.9 km/h 20.9 km/h 28 % 0 mm 352.0 W/m2 CLR
15:43 1.6 °C -10.5 °C 34361.1 hPa ESE 20.9 km/h 20.9 km/h 27 % 0 mm 434.0 W/m2 CLR
15:48 1.7 °C -10.4 °C 34361.1 hPa ESE 11.9 km/h 11.9 km/h 27 % 0 mm 954.0 W/m2 CLR
15:53 1.8 °C -10.3 °C 34361.1 hPa ENE 29.8 km/h 29.8 km/h 27 % 0 mm 503.0 W/m2 CLR
15:58 1.8 °C -10.3 °C 34347.6 hPa Calm     27 % 0 mm 664.0 W/m2 CLR
16:03 1.9 °C -10.6 °C 34361.1 hPa SSE 20.9 km/h 20.9 km/h 26 % 0 mm 838.0 W/m2 CLR
16:08 2.1 °C -10.4 °C 34361.1 hPa ESE 15 km/h 15 km/h 26 % 0 mm 990.0 W/m2 CLR
16:13 2.1 °C -10.4 °C 34361.1 hPa SE 20.9 km/h 20.9 km/h 26 % 0 mm 383.0 W/m2 CLR
16:18 1.9 °C -10.6 °C 34361.1 hPa SE 20.9 km/h 20.9 km/h 26 % 0 mm 243.0 W/m2 CLR
16:23 1.8 °C -10.3 °C 34361.1 hPa SE 33.6 km/h 33.6 km/h 27 % 0 mm 169.0 W/m2 CLR
16:28 1.5 °C -10.2 °C 34371.3 hPa SE 26.9 km/h 26.9 km/h 28 % 0 mm 98.0 W/m2 CLR
16:33 1.4 °C -10.6 °C 34395 hPa SW 119.1 km/h 119.1 km/h 27 % 0 mm 62.0 W/m2 CLR
16:38 -0.6 °C -8.4 °C 34418.7 hPa NW 62.6 km/h 62.6 km/h 43 % 0 mm 86.0 W/m2 FEW
16:43 -1.7 °C -7.9 °C 34418.7 hPa NW 82.9 km/h 82.9 km/h 51 % 0 mm 179.0 W/m2 FEW
16:48 -2.4 °C -7.6 °C 34428.8 hPa NW 74.5 km/h 74.5 km/h 57 % 0 mm 241.0 W/m2 CLR
16:53 -2.7 °C -7.5 °C 34442.4 hPa NW 56.6 km/h 56.6 km/h 59 % 0 mm 223.0 W/m2 CLR
16:58 -2.6 °C -7.4 °C 34428.8 hPa NW 50.7 km/h 50.7 km/h 59 % 0 mm 156.0 W/m2 CLR
17:04 -2.6 °C -7.6 °C 34428.8 hPa NNW 50.7 km/h 50.7 km/h 58 % 0 mm 113.0 W/m2 CLR
17:09 -2.5 °C -7.7 °C 34428.8 hPa NW 53.6 km/h 53.6 km/h 57 % 0 mm 127.0 W/m2 CLR
17:14 -2.5 °C -7.7 °C 34428.8 hPa NW 50.7 km/h 50.7 km/h 57 % 0 mm 269.0 W/m2 CLR
17:19 -2.3 °C -7.9 °C 34418.7 hPa NW 49.2 km/h 49.2 km/h 54 % 0 mm 316.0 W/m2 CLR
17:24 -2.2 °C -8.1 °C 34418.7 hPa NNW 50.7 km/h 50.7 km/h 53 % 0 mm 292.0 W/m2 CLR
17:29 -2.3 °C -8.1 °C 34418.7 hPa NNW 62.6 km/h 62.6 km/h 53 % 0 mm 227.0 W/m2 CLR
17:34 -2.3 °C -8.1 °C 34405.1 hPa North 33.6 km/h 33.6 km/h 53 % 0 mm 255.0 W/m2 CLR
17:39 -2.3 °C -8.1 °C 34405.1 hPa NNW 26.9 km/h 26.9 km/h 53 % 0 mm 418.0 W/m2 CLR
17:44 -2.1 °C -8.1 °C 34418.7 hPa NNW 32.8 km/h 32.8 km/h 52 % 0 mm 446.0 W/m2 CLR
17:49 -1.9 °C -8.3 °C 34428.8 hPa NNW 36.2 km/h 36.2 km/h 50 % 0 mm 302.0 W/m2 CLR
17:54 -2 °C -8.2 °C 34428.8 hPa NW 32.8 km/h 32.8 km/h 51 % 0 mm 710.0 W/m2 CLR
17:59 -1.9 °C -8.3 °C 34428.8 hPa NNE 29.8 km/h 29.8 km/h 50 % 0 mm 691.0 W/m2 CLR
18:04 -1.8 °C -8.2 °C 34428.8 hPa Calm     50 % 0 mm 385.0 W/m2 CLR
18:09 -1.8 °C -8.1 °C 34428.8 hPa Calm     50 % 0 mm 234.0 W/m2 CLR
18:14 -1.8 °C -8.2 °C 34428.8 hPa NE 12.9 km/h 12.9 km/h 50 % 0 mm 278.0 W/m2 CLR
18:19 -1.8 °C -8.2 °C 34428.8 hPa NNE 6 km/h 6 km/h 50 % 0 mm 223.0 W/m2 CLR
18:20 -1.8 °C -8.2 °C 34428.8 hPa North 6 km/h 6 km/h 50 % 0 mm 213.0 W/m2 CLR
18:25 -1.8 °C -8.3 °C 34428.8 hPa Calm     49 % 0 mm 213.0 W/m2 CLR
18:30 -1.8 °C -8.3 °C 34418.7 hPa ENE 9 km/h 9 km/h 49 % 0 mm 207.0 W/m2 CLR
18:35 -1.7 °C -8.2 °C 34418.7 hPa Calm     49 % 0 mm 555.0 W/m2 CLR
18:40 -1.6 °C -8.3 °C 34405.1 hPa ENE 17.9 km/h 17.9 km/h 48 % 0 mm 338.0 W/m2 CLR
18:45 -1.7 °C -8.4 °C 34405.1 hPa Calm     48 % 0 mm 181.0 W/m2 CLR
18:50 -1.9 °C -8.6 °C 34405.1 hPa ENE 9 km/h   48 % 0 mm 178.0 W/m2 CLR
18:53 -1.9 °C -8.8 °C 34395 hPa ENE 9 km/h   47 % 0 mm 186.0 W/m2 CLR
18:58 -1.9 °C -8.7 °C 34395 hPa Calm     48 % 0 mm 183.0 W/m2 CLR
19:03 -1.9 °C -8.7 °C 34395 hPa NE 11.9 km/h 11.9 km/h 48 % 0 mm 181.0 W/m2 CLR
19:08 -1.9 °C -8.7 °C 34395 hPa Calm     48 % 0 mm 134.0 W/m2 CLR
19:13 -2 °C -8.5 °C 34395 hPa Calm     49 % 0 mm 104.0 W/m2 CLR
19:18 -1.9 °C -8.7 °C 34395 hPa ESE 10.3 km/h 10.3 km/h 48 % 0 mm 102.0 W/m2 CLR
19:23 -2 °C -8.7 °C 34395 hPa ESE 9 km/h 9 km/h 48 % 0 mm 109.0 W/m2 CLR
19:28 -1.9 °C -8.7 °C 34405.1 hPa Calm     48 % 0 mm 123.0 W/m2 CLR
19:33 -1.9 °C -8.5 °C 34405.1 hPa SSE 5.1 km/h   49 % 0 mm 135.0 W/m2 CLR
19:38 -1.9 °C -8.4 °C 34395 hPa Calm     49 % 0 mm 272.0 W/m2 CLR
19:43 -1.9 °C -8.6 °C 34395 hPa SE 11.9 km/h 11.9 km/h 48 % 0 mm 237.0 W/m2 CLR
19:48 -1.9 °C -8.6 °C 34405.1 hPa ESE 9 km/h 9 km/h 48 % 0 mm 221.0 W/m2 CLR
19:53 -1.8 °C -8.6 °C 34405.1 hPa SE 9 km/h 9 km/h 48 % 0 mm 211.0 W/m2 CLR
19:58 -1.8 °C -8.7 °C 34395 hPa Calm     47 % 0 mm 211.0 W/m2 CLR
20:03 -1.8 °C -8.7 °C 34395 hPa Calm     47 % 0 mm 218.0 W/m2 CLR
20:08 -1.7 °C -8.6 °C 34395 hPa Calm     47 % 0 mm 192.0 W/m2 CLR
20:13 -1.6 °C -8.7 °C 34384.8 hPa ESE 26.9 km/h 26.9 km/h 46 % 0 mm 139.0 W/m2 CLR
20:18 -1.6 °C -8.7 °C 34384.8 hPa ESE 20.9 km/h 20.9 km/h 46 % 0 mm 76.0 W/m2 CLR
20:23 -1.6 °C -8.7 °C 34371.3 hPa East 25.9 km/h 25.9 km/h 46 % 0 mm 69.0 W/m2 FEW
20:28 -1.6 °C -8.5 °C 34361.1 hPa ESE 23.8 km/h 23.8 km/h 47 % 0 mm 62.0 W/m2 FEW
20:33 -1.6 °C -8.5 °C 34361.1 hPa East 17.9 km/h 17.9 km/h 47 % 0 mm 53.0 W/m2 SCT
20:38 -1.6 °C -8.5 °C 34361.1 hPa Calm     47 % 0 mm 53.0 W/m2 SCT
20:43 -1.6 °C -8.6 °C 34371.3 hPa Calm     47 % 0 mm 40.0 W/m2 BKN
20:48 -1.6 °C -8.5 °C 34371.3 hPa ENE 9 km/h 9 km/h 47 % 0 mm 42.0 W/m2 BKN
20:53 -1.6 °C -8.6 °C 34361.1 hPa Calm     47 % 0 mm 37.0 W/m2 BKN
20:58 -1.7 °C -8.4 °C 34371.3 hPa Calm     48 % 0 mm 32.0 W/m2 BKN
21:03 -1.7 °C -8.4 °C 34371.3 hPa Calm     48 % 0 mm 21.0 W/m2 BKN
21:08 -1.8 °C -8.5 °C 34361.1 hPa ENE 3.1 km/h   48 % 0 mm 16.0 W/m2 BKN
21:13 -1.8 °C -8.4 °C 34371.3 hPa Calm     49 % 0 mm 11.0 W/m2 BKN
21:18 -1.9 °C -8.4 °C 34371.3 hPa Calm     49 % 0 mm 7.0 W/m2 BKN
21:23 -1.9 °C -8.4 °C 34371.3 hPa East 15 km/h 15 km/h 49 % 0 mm 5.0 W/m2 OVC
21:24 -1.9 °C -8.5 °C 34371.3 hPa East 6 km/h 6 km/h 49 % 0 mm 5.0 W/m2 OVC
21:29 -2 °C -8.4 °C 34371.3 hPa Calm     50 % 0 mm 0.0 W/m2 OVC
21:34 -2.1 °C -8.4 °C 34371.3 hPa Calm     50 % 0 mm 0.0 W/m2 OVC
21:39 -2.1 °C -8.4 °C 34371.3 hPa Calm     50 % 0 mm 0.0 W/m2 OVC
21:41 -2.1 °C -8.4 °C 34371.3 hPa Calm     50 % 0 mm 0.0 W/m2 OVC
21:46 -2.2 °C -8.4 °C 34371.3 hPa Calm     51 % 0 mm 0.0 W/m2 CLR
21:51 -2.3 °C -8.4 °C 34384.8 hPa Calm     51 % 0 mm 0.0 W/m2 CLR
21:56 -2.3 °C -8.3 °C 34384.8 hPa Calm     52 % 0 mm 0.0 W/m2 CLR
22:01 -2.3 °C -8.3 °C 34384.8 hPa Calm     52 % 0 mm 0.0 W/m2 CLR
22:06 -2.4 °C -8.4 °C 34395 hPa Calm     52 % 0 mm 0.0 W/m2 CLR
22:11 -2.4 °C -8.4 °C 34395 hPa Calm     52 % 0 mm 0.0 W/m2 CLR
22:16 -2.5 °C -8.4 °C 34395 hPa Calm     52 % 0 mm 0.0 W/m2 CLR
22:21 -2.6 °C -8.4 °C 34395 hPa Calm     53 % 0 mm 0.0 W/m2 CLR
22:26 -2.7 °C -8.4 °C 34395 hPa Calm     53 % 0 mm 0.0 W/m2 CLR
22:31 -2.8 °C -8.4 °C 34395 hPa Calm     54 % 0 mm 0.0 W/m2 CLR
22:36 -2.8 °C -8.4 °C 34405.1 hPa Calm     54 % 0 mm 0.0 W/m2 CLR
22:41 -2.8 °C -8.4 °C 34405.1 hPa Calm     54 % 0 mm 0.0 W/m2 CLR
22:46 -2.9 °C -8.5 °C 34405.1 hPa Calm     54 % 0 mm 0.0 W/m2 CLR
22:51 -3.1 °C -8.5 °C 34405.1 hPa Calm     55 % 0 mm 0.0 W/m2 CLR
22:56 -3.2 °C -8.7 °C 34405.1 hPa Calm     55 % 0 mm 0.0 W/m2 CLR
23:01 -3.4 °C -8.4 °C 34405.1 hPa Calm     57 % 0 mm 0.0 W/m2 CLR
23:06 -3.4 °C -8.7 °C 34418.7 hPa Calm     56 % 0 mm 0.0 W/m2 CLR
23:11 -3.7 °C -8.6 °C 34418.7 hPa Calm     58 % 0 mm 0.0 W/m2 CLR
23:16 -3.9 °C -8.8 °C 34418.7 hPa Calm     58 % 0 mm 0.0 W/m2 CLR
23:21 -4.1 °C -8.8 °C 34418.7 hPa Calm     59 % 0 mm 0.0 W/m2 CLR
23:26 -4.2 °C -8.8 °C 34418.7 hPa Calm     60 % 0 mm 0.0 W/m2 CLR
23:31 -4.4 °C -8.8 °C 34405.1 hPa Calm     61 % 0 mm 0.0 W/m2 CLR
23:36 -4.4 °C -8.7 °C 34418.7 hPa Calm     62 % 0 mm 0.0 W/m2 CLR
23:41 -4.5 °C -8.8 °C 34418.7 hPa Calm     62 % 0 mm 0.0 W/m2 CLR
23:46 -4.5 °C -8.7 °C 34418.7 hPa Calm     63 % 0 mm 0.0 W/m2 CLR
23:51 -4.5 °C -8.8 °C 34418.7 hPa Calm     62 % 0 mm 0.0 W/m2 CLR
23:56 -4.6 °C -8.8 °C 34418.7 hPa Calm     62 % 0 mm 0.0 W/m2 CLR
Lo Temps de Massalio
Compliments of Weather Underground - 1.25 mb